sensor_id;sensor_type;location;lat;lon;timestamp;pressure;altitude;pressure_sealevel;temperature;humidity
9415;BME280;4746;35.664;139.738;2023-03-14T00:01:22;100972.56;;;16.12;39.43
9415;BME280;4746;35.664;139.738;2023-03-14T00:03:50;100969.09;;;16.10;39.40
9415;BME280;4746;35.664;139.738;2023-03-14T00:06:21;100955.28;;;16.14;39.56
9415;BME280;4746;35.664;139.738;2023-03-14T00:08:53;100950.09;;;16.25;39.10
9415;BME280;4746;35.664;139.738;2023-03-14T00:11:23;100944.94;;;16.29;38.72
9415;BME280;4746;35.664;139.738;2023-03-14T00:13:53;100956.13;;;16.22;38.85
9415;BME280;4746;35.664;139.738;2023-03-14T00:16:22;100963.06;;;16.08;38.99
9415;BME280;4746;35.664;139.738;2023-03-14T00:18:49;100963.06;;;16.08;38.91
9415;BME280;4746;35.664;139.738;2023-03-14T00:21:17;100971.69;;;16.10;39.05
9415;BME280;4746;35.664;139.738;2023-03-14T00:23:45;100981.16;;;16.08;39.02
9415;BME280;4746;35.664;139.738;2023-03-14T00:26:16;100982.03;;;16.10;39.02
9415;BME280;4746;35.664;139.738;2023-03-14T00:28:51;100981.16;;;16.10;39.26
9415;BME280;4746;35.664;139.738;2023-03-14T00:31:20;100983.75;;;16.11;39.59
9415;BME280;4746;35.664;139.738;2023-03-14T00:33:48;100997.50;;;16.22;39.72
9415;BME280;4746;35.664;139.738;2023-03-14T00:36:17;100994.03;;;16.26;39.17
9415;BME280;4746;35.664;139.738;2023-03-14T00:38:50;100990.66;;;16.12;38.95
9415;BME280;4746;35.664;139.738;2023-03-14T00:41:21;100989.81;;;16.09;39.54
9415;BME280;4746;35.664;139.738;2023-03-14T00:43:52;100994.94;;;16.07;39.33
9415;BME280;4746;35.664;139.738;2023-03-14T00:46:19;100997.56;;;16.09;39.29
9415;BME280;4746;35.664;139.738;2023-03-14T00:48:48;101009.59;;;16.08;39.13
9415;BME280;4746;35.664;139.738;2023-03-14T00:51:16;100998.41;;;16.05;39.32
9415;BME280;4746;35.664;139.738;2023-03-14T00:53:44;101008.78;;;15.95;39.24
9415;BME280;4746;35.664;139.738;2023-03-14T00:56:13;101007.91;;;15.98;39.49
9415;BME280;4746;35.664;139.738;2023-03-14T00:58:41;101006.19;;;16.00;39.85
9415;BME280;4746;35.664;139.738;2023-03-14T01:01:13;101016.53;;;15.98;39.78
9415;BME280;4746;35.664;139.738;2023-03-14T01:03:43;101016.53;;;15.98;39.86
9415;BME280;4746;35.664;139.738;2023-03-14T01:06:16;101032.06;;;15.90;39.77
9415;BME280;4746;35.664;139.738;2023-03-14T01:08:45;101037.22;;;15.95;39.61
9415;BME280;4746;35.664;139.738;2023-03-14T01:11:20;101026.03;;;15.91;39.60
9415;BME280;4746;35.664;139.738;2023-03-14T01:13:49;101037.22;;;15.90;39.34
9415;BME280;4746;35.664;139.738;2023-03-14T01:16:19;101033.75;;;16.01;39.51
9415;BME280;4746;35.664;139.738;2023-03-14T01:18:48;101025.97;;;16.12;39.49
9415;BME280;4746;35.664;139.738;2023-03-14T01:21:32;101027.69;;;16.17;39.14
9415;BME280;4746;35.664;139.738;2023-03-14T01:24:04;101023.34;;;16.25;38.97
9415;BME280;4746;35.664;139.738;2023-03-14T01:26:34;101010.44;;;16.27;38.58
9415;BME280;4746;35.664;139.738;2023-03-14T01:29:03;101019.88;;;16.38;38.96
9415;BME280;4746;35.664;139.738;2023-03-14T01:31:32;101025.06;;;16.47;38.51
9415;BME280;4746;35.664;139.738;2023-03-14T01:33:59;101013.75;;;16.60;38.71
9415;BME280;4746;35.664;139.738;2023-03-14T01:36:28;101012.84;;;16.73;37.91
9415;BME280;4746;35.664;139.738;2023-03-14T01:38:56;101012.84;;;16.73;38.25
9415;BME280;4746;35.664;139.738;2023-03-14T01:41:26;101016.22;;;16.84;38.11
9415;BME280;4746;35.664;139.738;2023-03-14T01:43:54;101013.63;;;16.91;37.30
9415;BME280;4746;35.664;139.738;2023-03-14T01:46:42;101013.59;;;16.90;37.50
9415;BME280;4746;35.664;139.738;2023-03-14T01:49:32;101009.28;;;16.89;37.44
9415;BME280;4746;35.664;139.738;2023-03-14T01:52:36;101009.38;;;16.75;37.61
9415;BME280;4746;35.664;139.738;2023-03-14T01:55:30;101007.75;;;16.55;37.27
9415;BME280;4746;35.664;139.738;2023-03-14T01:58:04;101001.78;;;16.43;37.61
9415;BME280;4746;35.664;139.738;2023-03-14T02:00:32;101007.84;;;16.34;37.74
9415;BME280;4746;35.664;139.738;2023-03-14T02:03:17;100997.44;;;16.46;37.71
9415;BME280;4746;35.664;139.738;2023-03-14T02:05:46;100995.69;;;16.51;37.72
9415;BME280;4746;35.664;139.738;2023-03-14T02:08:22;100993.91;;;16.67;37.17
9415;BME280;4746;35.664;139.738;2023-03-14T02:10:51;100986.09;;;16.77;37.26
9415;BME280;4746;35.664;139.738;2023-03-14T02:13:22;100980.06;;;16.72;36.58
9415;BME280;4746;35.664;139.738;2023-03-14T02:15:50;100976.59;;;16.77;36.39
9415;BME280;4746;35.664;139.738;2023-03-14T02:18:18;100980.91;;;16.77;35.82
9415;BME280;4746;35.664;139.738;2023-03-14T02:21:14;100980.03;;;16.76;36.09
9415;BME280;4746;35.664;139.738;2023-03-14T02:27:00;100979.94;;;16.93;36.12
9415;BME280;4746;35.664;139.738;2023-03-14T02:29:29;100986.78;;;17.03;35.75
9415;BME280;4746;35.664;139.738;2023-03-14T02:31:58;100978.06;;;17.13;35.31
9415;BME280;4746;35.664;139.738;2023-03-14T02:34:27;100981.44;;;17.27;34.95
9415;BME280;4746;35.664;139.738;2023-03-14T02:36:55;100983.03;;;17.42;34.74
9415;BME280;4746;35.664;139.738;2023-03-14T02:39:41;100972.50;;;17.63;34.72
9415;BME280;4746;35.664;139.738;2023-03-14T02:42:13;100969.88;;;17.66;34.19
9415;BME280;4746;35.664;139.738;2023-03-14T02:45:25;100958.50;;;17.79;34.19
9415;BME280;4746;35.664;139.738;2023-03-14T02:47:52;100956.69;;;17.89;33.56
9415;BME280;4746;35.664;139.738;2023-03-14T02:50:26;100961.69;;;18.04;33.50
9415;BME280;4746;35.664;139.738;2023-03-14T02:52:56;100956.31;;;18.23;33.17
9415;BME280;4746;35.664;139.738;2023-03-14T02:55:25;100952.50;;;18.51;33.06
9415;BME280;4746;35.664;139.738;2023-03-14T02:57:54;100941.88;;;18.69;32.69
9415;BME280;4746;35.664;139.738;2023-03-14T03:00:21;100949.50;;;18.78;32.11
9415;BME280;4746;35.664;139.738;2023-03-14T03:02:49;100948.41;;;18.93;32.11
9415;BME280;4746;35.664;139.738;2023-03-14T03:05:17;100948.16;;;19.11;31.54
9415;BME280;4746;35.664;139.738;2023-03-14T03:07:45;100951.50;;;19.19;31.43
9415;BME280;4746;35.664;139.738;2023-03-14T03:10:12;100953.97;;;19.28;31.15
9415;BME280;4746;35.664;139.738;2023-03-14T03:12:40;100941.59;;;19.41;31.13
9415;BME280;4746;35.664;139.738;2023-03-14T03:15:08;100937.69;;;19.65;30.72
9415;BME280;4746;35.664;139.738;2023-03-14T03:17:36;100930.31;;;19.88;30.70
9415;BME280;4746;35.664;139.738;2023-03-14T03:20:04;100923.13;;;20.02;30.02
9415;BME280;4746;35.664;139.738;2023-03-14T03:22:33;100916.88;;;20.11;29.96
9415;BME280;4746;35.664;139.738;2023-03-14T03:25:01;100918.06;;;20.37;29.70
9415;BME280;4746;35.664;139.738;2023-03-14T03:27:32;100918.34;;;20.63;29.37
9415;BME280;4746;35.664;139.738;2023-03-14T03:30:00;100911.97;;;20.77;29.14
9415;BME280;4746;35.664;139.738;2023-03-14T03:32:28;100912.25;;;21.01;28.93
9415;BME280;4746;35.664;139.738;2023-03-14T03:34:55;100910.69;;;21.29;28.57
9415;BME280;4746;35.664;139.738;2023-03-14T03:37:23;100905.75;;;21.52;28.18
9415;BME280;4746;35.664;139.738;2023-03-14T03:39:51;100898.31;;;21.70;27.93
9415;BME280;4746;35.664;139.738;2023-03-14T03:42:19;100900.13;;;21.97;28.06
9415;BME280;4746;35.664;139.738;2023-03-14T03:44:47;100890.22;;;22.10;28.15
9415;BME280;4746;35.664;139.738;2023-03-14T03:47:15;100890.22;;;22.10;27.42
9415;BME280;4746;35.664;139.738;2023-03-14T03:49:43;100877.22;;;22.08;27.22
9415;BME280;4746;35.664;139.738;2023-03-14T03:52:12;100876.28;;;22.11;27.38
9415;BME280;4746;35.664;139.738;2023-03-14T03:54:40;100867.06;;;22.28;27.14
9415;BME280;4746;35.664;139.738;2023-03-14T03:57:07;100863.19;;;22.41;26.80
9415;BME280;4746;35.664;139.738;2023-03-14T03:59:38;100860.94;;;22.29;26.37
9415;BME280;4746;35.664;139.738;2023-03-14T04:02:10;100867.69;;;22.36;26.45
9415;BME280;4746;35.664;139.738;2023-03-14T04:04:46;100863.50;;;22.58;26.38
9415;BME280;4746;35.664;139.738;2023-03-14T04:07:14;100857.72;;;22.76;26.43
9415;BME280;4746;35.664;139.738;2023-03-14T04:09:43;100859.03;;;23.14;25.87
9415;BME280;4746;35.664;139.738;2023-03-14T04:12:10;100854.00;;;23.34;25.49
9415;BME280;4746;35.664;139.738;2023-03-14T04:14:39;100857.94;;;23.21;25.29
9415;BME280;4746;35.664;139.738;2023-03-14T04:17:09;100853.31;;;23.29;25.22
9415;BME280;4746;35.664;139.738;2023-03-14T04:19:36;100838.41;;;23.31;25.70
9415;BME280;4746;35.664;139.738;2023-03-14T04:22:05;100839.69;;;23.20;25.24
9415;BME280;4746;35.664;139.738;2023-03-14T04:24:33;100827.56;;;23.17;25.15
9415;BME280;4746;35.664;139.738;2023-03-14T04:27:01;100833.97;;;23.09;25.34
9415;BME280;4746;35.664;139.738;2023-03-14T04:29:28;100821.44;;;23.18;25.06
9415;BME280;4746;35.664;139.738;2023-03-14T04:31:56;100815.59;;;23.35;25.29
9415;BME280;4746;35.664;139.738;2023-03-14T04:34:23;100809.38;;;23.39;25.21
9415;BME280;4746;35.664;139.738;2023-03-14T04:36:51;100813.13;;;23.79;25.12
9415;BME280;4746;35.664;139.738;2023-03-14T04:39:18;100819.00;;;24.52;23.66
9415;BME280;4746;35.664;139.738;2023-03-14T04:41:46;100823.88;;;25.24;23.19
9415;BME280;4746;35.664;139.738;2023-03-14T04:44:13;100827.09;;;25.89;22.94
9415;BME280;4746;35.664;139.738;2023-03-14T04:46:41;100832.72;;;26.55;22.42
9415;BME280;4746;35.664;139.738;2023-03-14T04:49:08;100839.22;;;27.00;21.86
9415;BME280;4746;35.664;139.738;2023-03-14T04:51:36;100828.53;;;27.37;21.05
9415;BME280;4746;35.664;139.738;2023-03-14T04:54:04;100823.31;;;27.69;20.80
9415;BME280;4746;35.664;139.738;2023-03-14T04:56:32;100817.69;;;28.07;20.53
9415;BME280;4746;35.664;139.738;2023-03-14T04:59:03;100827.94;;;28.44;20.41
9415;BME280;4746;35.664;139.738;2023-03-14T05:01:31;100820.25;;;28.85;20.06
9415;BME280;4746;35.664;139.738;2023-03-14T05:03:59;100822.09;;;28.99;19.94
9415;BME280;4746;35.664;139.738;2023-03-14T05:06:26;100827.22;;;28.71;20.18
9415;BME280;4746;35.664;139.738;2023-03-14T05:08:54;100825.44;;;28.56;20.40
9415;BME280;4746;35.664;139.738;2023-03-14T05:11:21;100823.63;;;29.46;19.24
9415;BME280;4746;35.664;139.738;2023-03-14T05:13:49;100828.50;;;31.78;17.64
9415;BME280;4746;35.664;139.738;2023-03-14T05:16:17;100828.50;;;34.10;16.38
9415;BME280;4746;35.664;139.738;2023-03-14T05:18:44;100819.31;;;35.80;15.27
9415;BME280;4746;35.664;139.738;2023-03-14T05:21:12;100827.53;;;36.94;13.99
9415;BME280;4746;35.664;139.738;2023-03-14T05:23:40;100825.94;;;37.94;13.83
9415;BME280;4746;35.664;139.738;2023-03-14T05:26:07;100825.41;;;38.71;13.53
9415;BME280;4746;35.664;139.738;2023-03-14T05:28:35;100830.19;;;39.37;12.68
9415;BME280;4746;35.664;139.738;2023-03-14T05:31:09;100824.91;;;39.71;12.39
9415;BME280;4746;35.664;139.738;2023-03-14T05:33:36;100816.06;;;39.78;12.61
9415;BME280;4746;35.664;139.738;2023-03-14T05:36:04;100813.13;;;39.89;12.15
9415;BME280;4746;35.664;139.738;2023-03-14T05:38:32;100816.69;;;40.39;12.09
9415;BME280;4746;35.664;139.738;2023-03-14T05:41:00;100812.09;;;41.04;11.56
9415;BME280;4746;35.664;139.738;2023-03-14T05:43:27;100815.81;;;41.43;11.26
9415;BME280;4746;35.664;139.738;2023-03-14T05:45:58;100810.84;;;41.78;11.16
9415;BME280;4746;35.664;139.738;2023-03-14T05:48:26;100809.19;;;42.15;10.90
9415;BME280;4746;35.664;139.738;2023-03-14T05:50:58;100811.09;;;42.45;10.93
9415;BME280;4746;35.664;139.738;2023-03-14T05:53:26;100816.66;;;42.74;10.27
9415;BME280;4746;35.664;139.738;2023-03-14T05:55:58;100811.81;;;42.62;10.68
9415;BME280;4746;35.664;139.738;2023-03-14T05:58:28;100816.34;;;42.69;10.40
9415;BME280;4746;35.664;139.738;2023-03-14T06:01:01;100821.09;;;42.89;10.30
9415;BME280;4746;35.664;139.738;2023-03-14T06:03:28;100815.72;;;43.04;10.13
9415;BME280;4746;35.664;139.738;2023-03-14T06:05:56;100821.56;;;42.93;9.75
9415;BME280;4746;35.664;139.738;2023-03-14T06:08:24;100819.53;;;42.95;10.24
9415;BME280;4746;35.664;139.738;2023-03-14T06:10:53;100832.63;;;43.06;9.99
9415;BME280;4746;35.664;139.738;2023-03-14T06:13:22;100819.75;;;43.30;9.71
9415;BME280;4746;35.664;139.738;2023-03-14T06:15:50;100822.69;;;43.57;9.88
9415;BME280;4746;35.664;139.738;2023-03-14T06:18:21;100821.00;;;43.56;10.16
9415;BME280;4746;35.664;139.738;2023-03-14T06:20:56;100828.25;;;43.42;9.64
9415;BME280;4746;35.664;139.738;2023-03-14T06:23:26;100831.19;;;43.18;9.74
9415;BME280;4746;35.664;139.738;2023-03-14T06:25:53;100827.81;;;43.16;10.08
9415;BME280;4746;35.664;139.738;2023-03-14T06:28:21;100821.69;;;43.22;10.12
9415;BME280;4746;35.664;139.738;2023-03-14T06:30:49;100834.47;;;43.42;9.55
9415;BME280;4746;35.664;139.738;2023-03-14T06:33:16;100838.44;;;43.68;9.44
9415;BME280;4746;35.664;139.738;2023-03-14T06:35:44;100838.19;;;43.92;9.30
9415;BME280;4746;35.664;139.738;2023-03-14T06:38:12;100836.91;;;43.88;9.54
9415;BME280;4746;35.664;139.738;2023-03-14T06:40:40;100833.06;;;43.83;9.52
9415;BME280;4746;35.664;139.738;2023-03-14T06:43:11;100835.47;;;44.07;9.38
9415;BME280;4746;35.664;139.738;2023-03-14T06:45:38;100839.47;;;44.25;9.17
9415;BME280;4746;35.664;139.738;2023-03-14T06:48:09;100836.63;;;43.98;9.61
9415;BME280;4746;35.664;139.738;2023-03-14T06:50:36;100838.09;;;43.71;9.30
9415;BME280;4746;35.664;139.738;2023-03-14T06:53:04;100849.81;;;43.64;9.40
9415;BME280;4746;35.664;139.738;2023-03-14T06:55:34;100852.22;;;43.73;9.10
9415;BME280;4746;35.664;139.738;2023-03-14T06:58:01;100861.06;;;43.67;9.00
9415;BME280;4746;35.664;139.738;2023-03-14T07:00:29;100849.75;;;43.86;9.44
9415;BME280;4746;35.664;139.738;2023-03-14T07:02:59;100858.59;;;43.95;9.49
9415;BME280;4746;35.664;139.738;2023-03-14T07:05:27;100859.28;;;43.82;9.25
9415;BME280;4746;35.664;139.738;2023-03-14T07:07:54;100859.09;;;43.84;9.36
9415;BME280;4746;35.664;139.738;2023-03-14T07:10:22;100868.91;;;43.62;9.14
9415;BME280;4746;35.664;139.738;2023-03-14T07:12:50;100861.94;;;43.31;9.59
9415;BME280;4746;35.664;139.738;2023-03-14T07:15:19;100863.16;;;42.98;9.81
9415;BME280;4746;35.664;139.738;2023-03-14T07:17:48;100878.88;;;42.72;9.06
9415;BME280;4746;35.664;139.738;2023-03-14T07:20:15;100873.56;;;42.57;10.05
9415;BME280;4746;35.664;139.738;2023-03-14T07:22:43;100872.00;;;42.24;10.12
9415;BME280;4746;35.664;139.738;2023-03-14T07:25:11;100878.03;;;41.96;10.07
9415;BME280;4746;35.664;139.738;2023-03-14T07:27:45;100877.03;;;41.57;10.21
9415;BME280;4746;35.664;139.738;2023-03-14T07:30:17;100880.09;;;41.14;10.26
9415;BME280;4746;35.664;139.738;2023-03-14T07:32:45;100875.31;;;40.92;10.28
9415;BME280;4746;35.664;139.738;2023-03-14T07:35:13;100882.13;;;40.63;10.63
9415;BME280;4746;35.664;139.738;2023-03-14T07:37:40;100883.34;;;40.76;10.46
9415;BME280;4746;35.664;139.738;2023-03-14T07:40:08;100881.47;;;40.28;10.69
9415;BME280;4746;35.664;139.738;2023-03-14T07:42:37;100891.69;;;39.91;11.16
9415;BME280;4746;35.664;139.738;2023-03-14T07:45:05;100886.41;;;39.56;11.29
9415;BME280;4746;35.664;139.738;2023-03-14T07:47:33;100905.59;;;39.26;11.42
9415;BME280;4746;35.664;139.738;2023-03-14T07:50:00;100898.50;;;38.91;11.53
9415;BME280;4746;35.664;139.738;2023-03-14T07:53:01;100906.19;;;38.49;11.86
9415;BME280;4746;35.664;139.738;2023-03-14T07:55:31;100906.38;;;38.12;11.75
9415;BME280;4746;35.664;139.738;2023-03-14T07:57:59;100902.69;;;37.57;11.64
9415;BME280;4746;35.664;139.738;2023-03-14T08:00:26;100900.00;;;37.10;12.18
9415;BME280;4746;35.664;139.738;2023-03-14T08:02:54;100904.03;;;36.37;12.47
9415;BME280;4746;35.664;139.738;2023-03-14T08:05:25;100900.88;;;35.52;12.99
9415;BME280;4746;35.664;139.738;2023-03-14T08:07:52;100902.34;;;33.63;14.40
9415;BME280;4746;35.664;139.738;2023-03-14T08:10:20;100921.31;;;31.90;15.14
9415;BME280;4746;35.664;139.738;2023-03-14T08:12:51;100918.84;;;30.43;16.07
9415;BME280;4746;35.664;139.738;2023-03-14T08:15:21;100924.69;;;29.05;17.14
9415;BME280;4746;35.664;139.738;2023-03-14T08:17:49;100928.88;;;27.98;18.36
9415;BME280;4746;35.664;139.738;2023-03-14T08:20:18;100943.31;;;27.05;19.12
9415;BME280;4746;35.664;139.738;2023-03-14T08:22:46;100936.81;;;26.20;19.85
9415;BME280;4746;35.664;139.738;2023-03-14T08:25:14;100945.13;;;25.52;20.66
9415;BME280;4746;35.664;139.738;2023-03-14T08:27:43;100951.25;;;24.88;21.47
9415;BME280;4746;35.664;139.738;2023-03-14T08:30:14;100947.19;;;24.58;21.76
9415;BME280;4746;35.664;139.738;2023-03-14T08:32:41;100963.28;;;24.25;22.25
9415;BME280;4746;35.664;139.738;2023-03-14T08:35:10;100965.13;;;23.75;22.50
9415;BME280;4746;35.664;139.738;2023-03-14T08:37:38;100974.53;;;23.28;23.63
9415;BME280;4746;35.664;139.738;2023-03-14T08:40:07;100974.03;;;22.89;23.97
9415;BME280;4746;35.664;139.738;2023-03-14T08:42:38;100976.84;;;22.54;24.62
9415;BME280;4746;35.664;139.738;2023-03-14T08:45:08;100975.94;;;22.25;24.94
9415;BME280;4746;35.664;139.738;2023-03-14T08:47:36;100985.38;;;21.98;24.99
9415;BME280;4746;35.664;139.738;2023-03-14T08:50:05;100986.00;;;21.74;25.46
9415;BME280;4746;35.664;139.738;2023-03-14T08:52:33;100994.47;;;21.49;26.08
9415;BME280;4746;35.664;139.738;2023-03-14T08:55:01;100997.56;;;21.30;26.22
9415;BME280;4746;35.664;139.738;2023-03-14T08:57:28;101001.50;;;21.11;26.75
9415;BME280;4746;35.664;139.738;2023-03-14T08:59:57;101003.72;;;20.91;27.09
9415;BME280;4746;35.664;139.738;2023-03-14T09:02:25;101007.50;;;20.75;27.25
9415;BME280;4746;35.664;139.738;2023-03-14T09:04:53;101020.75;;;20.63;27.73
9415;BME280;4746;35.664;139.738;2023-03-14T09:07:21;101021.09;;;20.48;28.24
9415;BME280;4746;35.664;139.738;2023-03-14T09:09:49;101024.78;;;20.37;28.46
9415;BME280;4746;35.664;139.738;2023-03-14T09:12:16;101025.13;;;20.21;29.66
9415;BME280;4746;35.664;139.738;2023-03-14T09:14:44;101035.06;;;19.99;30.29
9415;BME280;4746;35.664;139.738;2023-03-14T09:17:11;101027.53;;;19.83;31.31
9415;BME280;4746;35.664;139.738;2023-03-14T09:19:40;101047.75;;;19.66;31.71
9415;BME280;4746;35.664;139.738;2023-03-14T09:22:08;101048.88;;;19.52;31.97
9415;BME280;4746;35.664;139.738;2023-03-14T09:24:35;101052.56;;;19.37;32.47
9415;BME280;4746;35.664;139.738;2023-03-14T09:27:03;101060.56;;;19.24;32.62
9415;BME280;4746;35.664;139.738;2023-03-14T09:29:30;101067.72;;;19.08;33.04
9415;BME280;4746;35.664;139.738;2023-03-14T09:31:59;101059.19;;;18.97;33.06
9415;BME280;4746;35.664;139.738;2023-03-14T09:34:27;101076.66;;;18.86;33.07
9415;BME280;4746;35.664;139.738;2023-03-14T09:36:54;101070.66;;;18.80;33.66
9415;BME280;4746;35.664;139.738;2023-03-14T09:39:22;101079.41;;;18.75;33.80
9415;BME280;4746;35.664;139.738;2023-03-14T09:41:52;101091.56;;;18.68;34.04
9415;BME280;4746;35.664;139.738;2023-03-14T09:44:32;101091.63;;;18.62;34.25
9415;BME280;4746;35.664;139.738;2023-03-14T09:47:14;101093.47;;;18.56;34.50
9415;BME280;4746;35.664;139.738;2023-03-14T09:49:43;101098.72;;;18.47;34.90
9415;BME280;4746;35.664;139.738;2023-03-14T09:52:26;101106.56;;;18.44;34.34
9415;BME280;4746;35.664;139.738;2023-03-14T09:55:21;101116.16;;;18.36;34.10
9415;BME280;4746;35.664;139.738;2023-03-14T09:57:55;101123.16;;;18.26;34.28
9415;BME280;4746;35.664;139.738;2023-03-14T10:00:28;101115.44;;;18.20;34.31
9415;BME280;4746;35.664;139.738;2023-03-14T10:05:42;101125.06;;;18.04;33.91
9415;BME280;4746;35.664;139.738;2023-03-14T10:08:14;101128.59;;;18.00;33.77
9415;BME280;4746;35.664;139.738;2023-03-14T10:10:44;101134.69;;;17.96;33.63
9415;BME280;4746;35.664;139.738;2023-03-14T10:13:25;101140.72;;;17.95;33.58
9415;BME280;4746;35.664;139.738;2023-03-14T10:16:03;101149.41;;;17.89;33.56
9415;BME280;4746;35.664;139.738;2023-03-14T10:18:33;101153.81;;;17.81;34.07
9415;BME280;4746;35.664;139.738;2023-03-14T10:21:30;101152.06;;;17.80;33.52
9415;BME280;4746;35.664;139.738;2023-03-14T10:24:26;101164.19;;;17.77;33.22
9415;BME280;4746;35.664;139.738;2023-03-14T10:27:08;101169.41;;;17.72;33.99
9415;BME280;4746;35.664;139.738;2023-03-14T10:29:58;101173.75;;;17.70;33.58
9415;BME280;4746;35.664;139.738;2023-03-14T10:32:39;101184.13;;;17.69;33.49
9415;BME280;4746;35.664;139.738;2023-03-14T10:38:13;101189.34;;;17.61;33.69
9415;BME280;4746;35.664;139.738;2023-03-14T10:40:49;101200.63;;;17.54;33.85
9415;BME280;4746;35.664;139.738;2023-03-14T10:43:34;101190.25;;;17.54;33.84
9415;BME280;4746;35.664;139.738;2023-03-14T10:46:17;101194.59;;;17.54;33.78
9415;BME280;4746;35.664;139.738;2023-03-14T10:48:45;101194.63;;;17.46;34.05
9415;BME280;4746;35.664;139.738;2023-03-14T10:51:19;101200.69;;;17.45;34.06
9415;BME280;4746;35.664;139.738;2023-03-14T10:54:14;101212.78;;;17.43;33.73
9415;BME280;4746;35.664;139.738;2023-03-14T10:56:42;101211.94;;;17.36;34.10
9415;BME280;4746;35.664;139.738;2023-03-14T10:59:15;101216.28;;;17.34;34.35
9415;BME280;4746;35.664;139.738;2023-03-14T11:07:44;101218.91;;;17.17;34.78
9415;BME280;4746;35.664;139.738;2023-03-14T11:10:22;101234.44;;;17.13;34.46
9415;BME280;4746;35.664;139.738;2023-03-14T11:13:30;101237.03;;;17.13;34.67
9415;BME280;4746;35.664;139.738;2023-03-14T11:16:53;101231.88;;;17.05;34.56
9415;BME280;4746;35.664;139.738;2023-03-14T11:28:23;101254.38;;;16.87;35.26
9415;BME280;4746;35.664;139.738;2023-03-14T11:31:24;101254.38;;;16.81;35.35
9415;BME280;4746;35.664;139.738;2023-03-14T11:34:27;101258.69;;;16.77;35.56
9415;BME280;4746;35.664;139.738;2023-03-14T11:42:31;101263.03;;;16.65;36.21
9415;BME280;4746;35.664;139.738;2023-03-14T11:45:00;101263.03;;;16.62;35.75
9415;BME280;4746;35.664;139.738;2023-03-14T11:47:42;101271.66;;;16.61;36.21
9415;BME280;4746;35.664;139.738;2023-03-14T11:50:28;101267.34;;;16.60;36.32
9415;BME280;4746;35.664;139.738;2023-03-14T11:53:08;101263.03;;;16.58;36.36
9415;BME280;4746;35.664;139.738;2023-03-14T11:55:40;101263.03;;;16.56;36.75
9415;BME280;4746;35.664;139.738;2023-03-14T11:58:19;101272.53;;;16.57;36.15
9415;BME280;4746;35.664;139.738;2023-03-14T12:00:54;101288.03;;;16.54;36.80
9415;BME280;4746;35.664;139.738;2023-03-14T12:03:44;101280.28;;;16.56;36.60
9415;BME280;4746;35.664;139.738;2023-03-14T12:06:50;101285.44;;;16.54;36.40
9415;BME280;4746;35.664;139.738;2023-03-14T12:09:25;101280.28;;;16.48;36.89
9415;BME280;4746;35.664;139.738;2023-03-14T12:12:20;101297.53;;;16.52;36.55
9415;BME280;4746;35.664;139.738;2023-03-14T12:17:42;101299.28;;;16.47;36.92
9415;BME280;4746;35.664;139.738;2023-03-14T12:20:29;101296.66;;;16.43;37.30
9415;BME280;4746;35.664;139.738;2023-03-14T12:23:12;101309.59;;;16.44;37.36
9415;BME280;4746;35.664;139.738;2023-03-14T12:25:43;101310.47;;;16.42;37.11
9415;BME280;4746;35.664;139.738;2023-03-14T12:28:22;101317.38;;;16.49;37.48
9415;BME280;4746;35.664;139.738;2023-03-14T12:42:51;101314.78;;;16.41;37.47
9415;BME280;4746;35.664;139.738;2023-03-14T12:44:51;101319.09;;;16.38;37.86
9415;BME280;4746;35.664;139.738;2023-03-14T12:49:52;101311.31;;;16.36;37.94
9415;BME280;4746;35.664;139.738;2023-03-14T12:52:44;101320.81;;;16.39;37.98
9415;BME280;4746;35.664;139.738;2023-03-14T12:55:57;101321.66;;;16.36;37.43
9415;BME280;4746;35.664;139.738;2023-03-14T12:58:34;101327.69;;;16.29;37.79
9415;BME280;4746;35.664;139.738;2023-03-14T13:01:15;101330.28;;;16.29;38.04
9415;BME280;4746;35.664;139.738;2023-03-14T13:03:57;101332.00;;;16.27;37.71
9415;BME280;4746;35.664;139.738;2023-03-14T13:12:14;101331.97;;;16.26;38.18
9415;BME280;4746;35.664;139.738;2023-03-14T13:14:49;101330.25;;;16.23;38.35
9415;BME280;4746;35.664;139.738;2023-03-14T13:17:34;101340.56;;;16.20;38.14
9415;BME280;4746;35.664;139.738;2023-03-14T13:20:19;101337.09;;;16.15;38.69
9415;BME280;4746;35.664;139.738;2023-03-14T13:22:50;101344.00;;;16.10;38.66
9415;BME280;4746;35.664;139.738;2023-03-14T13:25:18;101340.53;;;16.08;38.78
9415;BME280;4746;35.664;139.738;2023-03-14T13:27:48;101342.28;;;16.06;39.00
9415;BME280;4746;35.664;139.738;2023-03-14T13:30:40;101357.81;;;16.12;38.68
9415;BME280;4746;35.664;139.738;2023-03-14T13:33:20;101350.88;;;16.08;38.77
9415;BME280;4746;35.664;139.738;2023-03-14T13:36:06;101350.88;;;16.07;38.55
9415;BME280;4746;35.664;139.738;2023-03-14T13:38:36;101353.44;;;16.04;39.18
9415;BME280;4746;35.664;139.738;2023-03-14T13:41:08;101358.59;;;16.04;39.04
9415;BME280;4746;35.664;139.738;2023-03-14T13:43:41;101361.19;;;16.01;39.17
9415;BME280;4746;35.664;139.738;2023-03-14T13:46:22;101358.63;;;15.98;39.23
9415;BME280;4746;35.664;139.738;2023-03-14T13:49:24;101376.69;;;15.97;39.30
9415;BME280;4746;35.664;139.738;2023-03-14T13:51:52;101371.50;;;15.88;39.59
9415;BME280;4746;35.664;139.738;2023-03-14T13:54:31;101376.66;;;15.91;39.43
9415;BME280;4746;35.664;139.738;2023-03-14T13:57:06;101379.25;;;15.86;39.67
9415;BME280;4746;35.664;139.738;2023-03-14T13:59:35;101371.47;;;15.85;39.65
9415;BME280;4746;35.664;139.738;2023-03-14T14:02:14;101373.19;;;15.87;39.82
9415;BME280;4746;35.664;139.738;2023-03-14T14:04:42;101371.47;;;15.82;40.42
9415;BME280;4746;35.664;139.738;2023-03-14T14:07:15;101368.88;;;15.82;40.02
9415;BME280;4746;35.664;139.738;2023-03-14T14:09:52;101376.63;;;15.82;40.08